createdAt,value
2018-07-25T00:00:40.087Z,25.83
2018-07-25T00:03:12.011Z,28.80
2018-07-25T00:05:43.906Z,25.50
2018-07-25T00:08:16.155Z,27.43
2018-07-25T00:10:50.196Z,26.33
2018-07-25T00:13:22.063Z,28.00
2018-07-25T00:15:53.937Z,27.37
2018-07-25T00:18:26.193Z,30.10
2018-07-25T00:20:58.283Z,28.17
2018-07-25T00:23:30.155Z,28.03
2018-07-25T00:26:03.406Z,28.80
2018-07-25T00:28:35.278Z,27.70
2018-07-25T00:31:06.880Z,27.10
2018-07-25T00:33:38.874Z,28.77
2018-07-25T00:36:10.857Z,27.57
2018-07-25T00:38:42.750Z,26.10
2018-07-25T00:41:15.004Z,28.30
2018-07-25T00:43:46.919Z,27.33
2018-07-25T00:46:18.809Z,26.07
2018-07-25T00:48:51.101Z,25.63
2018-07-25T00:51:23.053Z,25.97
2018-07-25T00:53:55.063Z,26.47
2018-07-25T00:56:27.031Z,25.67
2018-07-25T00:58:58.854Z,24.27
2018-07-25T01:01:30.607Z,27.27
2018-07-25T01:04:03.094Z,27.13
2018-07-25T01:06:35.345Z,25.23
2018-07-25T01:09:08.769Z,25.80
2018-07-25T01:11:40.422Z,27.53
2018-07-25T01:14:12.611Z,25.93
2018-07-25T01:16:44.446Z,27.47
2018-07-25T01:19:16.581Z,24.60
2018-07-25T01:21:48.478Z,26.03
2018-07-25T01:24:20.593Z,25.80
2018-07-25T01:26:52.788Z,25.10
2018-07-25T01:29:25.038Z,26.20
2018-07-25T01:31:57.048Z,24.70
2018-07-25T01:34:29.177Z,25.70
2018-07-25T01:37:01.078Z,24.57
2018-07-25T01:39:33.130Z,24.97
2018-07-25T01:42:04.914Z,24.77
2018-07-25T01:44:36.722Z,24.33
2018-07-25T01:47:08.555Z,25.03
2018-07-25T01:49:40.666Z,25.40
2018-07-25T01:52:11.517Z,25.23
2018-07-25T01:54:43.686Z,26.23
2018-07-25T01:57:15.337Z,26.50
2018-07-25T01:59:47.454Z,26.60
2018-07-25T02:02:19.309Z,25.23
2018-07-25T02:04:51.255Z,24.43
2018-07-25T02:07:23.170Z,25.07
2018-07-25T02:09:55.551Z,25.57
2018-07-25T02:12:27.445Z,26.53
2018-07-25T02:14:59.701Z,28.10
2018-07-25T02:17:31.555Z,27.63
2018-07-25T02:20:02.696Z,27.00
2018-07-25T02:22:34.294Z,28.40
2018-07-25T02:25:06.286Z,27.27
2018-07-25T02:27:38.957Z,27.17
2018-07-25T02:30:10.874Z,26.40
2018-07-25T02:32:42.647Z,26.60
2018-07-25T02:35:13.655Z,27.80
2018-07-25T02:37:45.395Z,25.63
2018-07-25T02:40:17.610Z,26.97
2018-07-25T02:42:49.686Z,27.10
2018-07-25T02:45:21.551Z,27.80
2018-07-25T02:47:53.307Z,25.50
2018-07-25T02:50:25.406Z,26.10
2018-07-25T02:52:57.415Z,25.37
2018-07-25T02:55:28.782Z,27.40
2018-07-25T02:58:00.506Z,26.40
2018-07-25T03:00:32.628Z,25.80
2018-07-25T03:03:04.459Z,26.13
2018-07-25T03:05:36.630Z,26.47
2018-07-25T03:08:09.248Z,25.00
2018-07-25T03:10:46.396Z,23.70
2018-07-25T03:13:18.107Z,24.17
2018-07-25T03:15:55.938Z,23.83
2018-07-25T03:18:27.688Z,24.27
2018-07-25T03:21:01.219Z,23.27
2018-07-25T03:23:34.174Z,24.80
2018-07-25T03:26:06.119Z,22.63
2018-07-25T03:28:38.436Z,23.93
2018-07-25T03:31:09.275Z,22.50
2018-07-25T03:33:40.850Z,19.77
2018-07-25T03:36:12.806Z,19.63
2018-07-25T03:38:44.631Z,19.70
2018-07-25T03:41:16.463Z,19.53
2018-07-25T03:43:48.121Z,20.20
2018-07-25T03:46:20.434Z,19.67
2018-07-25T03:48:52.119Z,20.33
2018-07-25T03:51:24.049Z,18.20
2018-07-25T03:53:55.914Z,19.90
2018-07-25T03:56:27.933Z,19.37
2018-07-25T03:58:59.702Z,17.60
2018-07-25T04:01:31.882Z,18.50
2018-07-25T04:04:03.762Z,18.37
2018-07-25T04:06:36.047Z,18.53
2018-07-25T04:09:09.872Z,18.67
2018-07-25T04:11:41.950Z,19.20
2018-07-25T04:14:13.725Z,18.90
2018-07-25T04:16:45.942Z,19.00
2018-07-25T04:19:17.907Z,18.40
2018-07-25T04:21:50.349Z,18.00
2018-07-25T04:24:22.093Z,17.20
2018-07-25T04:26:54.558Z,18.00
2018-07-25T04:29:27.239Z,17.50
2018-07-25T04:31:59.388Z,16.80
2018-07-25T04:34:31.150Z,17.17
2018-07-25T04:37:03.187Z,16.97
2018-07-25T04:39:34.101Z,15.70
2018-07-25T04:42:06.103Z,15.70
2018-07-25T04:44:37.130Z,15.20
2018-07-25T04:47:09.339Z,14.87
2018-07-25T04:49:41.177Z,15.40
2018-07-25T04:52:12.642Z,15.37
2018-07-25T04:54:44.752Z,16.40
2018-07-25T04:57:17.492Z,15.20
2018-07-25T04:59:48.447Z,15.23
2018-07-25T05:02:20.473Z,15.30
2018-07-25T05:04:52.399Z,14.60
2018-07-25T05:07:26.105Z,13.48
2018-07-25T05:09:58.014Z,13.62
2018-07-25T05:12:30.066Z,14.18
2018-07-25T05:15:01.959Z,14.03
2018-07-25T05:17:34.003Z,14.55
2018-07-25T05:20:05.530Z,14.70
2018-07-25T05:22:37.393Z,15.45
2018-07-25T05:25:08.299Z,15.20
2018-07-25T05:27:40.246Z,15.10
2018-07-25T05:30:12.647Z,15.72
2018-07-25T05:32:44.527Z,12.18
2018-07-25T05:35:16.417Z,12.88
2018-07-25T05:37:49.245Z,11.18
2018-07-25T05:40:20.856Z,10.55
2018-07-25T05:42:52.979Z,11.08
2018-07-25T05:45:24.553Z,10.85
2018-07-25T05:47:56.366Z,11.10
2018-07-25T05:50:27.363Z,9.63
2018-07-25T05:52:59.353Z,11.33
2018-07-25T05:55:31.165Z,8.43
2018-07-25T05:58:03.279Z,9.25
2018-07-25T06:00:35.206Z,8.35
2018-07-25T06:03:07.646Z,8.18
2018-07-25T06:05:39.454Z,7.33
2018-07-25T06:08:11.727Z,8.30
2018-07-25T06:10:43.587Z,8.28
2018-07-25T06:13:15.658Z,7.50
2018-07-25T06:15:47.545Z,8.40
2018-07-25T06:18:18.585Z,6.53
2018-07-25T06:20:50.399Z,7.65
2018-07-25T06:23:22.744Z,8.15
2018-07-25T06:25:54.564Z,8.15
2018-07-25T06:28:25.425Z,8.00
2018-07-25T06:30:59.652Z,7.25
2018-07-25T06:33:30.970Z,7.35
2018-07-25T06:36:02.761Z,8.28
2018-07-25T06:38:34.213Z,6.85
2018-07-25T06:41:05.542Z,7.40
2018-07-25T06:43:37.741Z,7.55
2018-07-25T06:46:09.568Z,7.05
2018-07-25T06:48:41.515Z,7.58
2018-07-25T06:51:13.447Z,7.65
2018-07-25T06:53:45.165Z,7.97
2018-07-25T06:56:16.852Z,7.58
2018-07-25T06:58:48.974Z,8.60
2018-07-25T07:01:21.186Z,8.98
2018-07-25T07:03:53.711Z,7.95
2018-07-25T07:06:25.497Z,7.40
2018-07-25T07:08:57.571Z,7.50
2018-07-25T07:11:29.402Z,8.15
2018-07-25T07:14:01.458Z,7.60
2018-07-25T07:16:33.246Z,7.92
2018-07-25T07:19:05.142Z,8.08
2018-07-25T07:21:36.549Z,7.40
2018-07-25T07:24:08.506Z,9.33
2018-07-25T07:26:40.508Z,7.62
2018-07-25T07:29:12.546Z,9.00
2018-07-25T07:31:44.951Z,8.35
2018-07-25T07:34:16.239Z,7.30
2018-07-25T07:36:46.880Z,8.38
2018-07-25T07:39:18.981Z,7.90
2018-07-25T07:41:50.597Z,7.72
2018-07-25T07:44:22.617Z,8.20
2018-07-25T07:46:54.154Z,8.20
2018-07-25T07:49:26.157Z,8.30
2018-07-25T07:51:57.766Z,8.80
2018-07-25T07:54:29.663Z,7.70
2018-07-25T07:57:01.688Z,8.45
2018-07-25T07:59:33.203Z,9.08
2018-07-25T08:02:04.861Z,8.78
2018-07-25T08:04:37.808Z,9.63
2018-07-25T08:07:09.458Z,9.98
2018-07-25T08:09:41.414Z,9.58
2018-07-25T08:12:13.123Z,9.45
2018-07-25T08:14:44.911Z,9.58
2018-07-25T08:17:16.295Z,10.67
2018-07-25T08:19:48.937Z,9.87
2018-07-25T08:22:20.319Z,9.90
2018-07-25T08:24:52.134Z,9.97
2018-07-25T08:27:22.746Z,11.40
2018-07-25T08:29:54.766Z,12.13
2018-07-25T08:32:25.490Z,10.83
2018-07-25T08:34:56.577Z,11.13
2018-07-25T08:37:27.526Z,10.93
2018-07-25T08:39:59.502Z,11.90
2018-07-25T08:42:31.371Z,11.43
2018-07-25T08:45:03.691Z,11.13
2018-07-25T08:47:35.626Z,10.30
2018-07-25T08:50:09.215Z,11.43
2018-07-25T08:52:40.147Z,11.17
2018-07-25T08:55:11.309Z,11.03
2018-07-25T08:57:42.935Z,11.53
2018-07-25T09:00:14.975Z,10.50
2018-07-25T09:02:46.618Z,13.33
2018-07-25T09:05:18.979Z,12.40
2018-07-25T09:07:50.730Z,12.10
2018-07-25T09:10:22.485Z,13.22
2018-07-25T09:12:54.022Z,12.00
2018-07-25T09:15:25.780Z,12.27
2018-07-25T09:17:56.490Z,11.37
2018-07-25T09:20:28.587Z,12.83
2018-07-25T09:23:00.263Z,11.53
2018-07-25T09:25:32.324Z,11.27
2018-07-25T09:28:04.334Z,11.90
2018-07-25T09:30:35.902Z,12.60
2018-07-25T09:33:07.515Z,11.93
2018-07-25T09:35:39.475Z,11.47
2018-07-25T09:38:11.058Z,9.00
2018-07-25T09:40:42.684Z,10.67
2018-07-25T09:43:14.437Z,10.57
2018-07-25T09:45:46.392Z,9.80
2018-07-25T09:48:18.110Z,10.63
2018-07-25T09:50:49.790Z,9.77
2018-07-25T09:53:21.412Z,10.23
2018-07-25T09:55:53.475Z,9.23
2018-07-25T09:58:25.215Z,10.37
2018-07-25T10:00:57.786Z,11.80
2018-07-25T10:03:29.466Z,10.40
2018-07-25T10:06:02.640Z,10.23
2018-07-25T10:08:34.178Z,9.87
2018-07-25T10:11:05.017Z,9.70
2018-07-25T10:13:36.682Z,11.50
2018-07-25T10:16:09.006Z,9.63
2018-07-25T10:18:40.888Z,10.00
2018-07-25T10:21:11.901Z,10.70
2018-07-25T10:23:42.919Z,10.73
2018-07-25T10:26:14.962Z,9.50
2018-07-25T10:28:45.804Z,9.37
2018-07-25T10:31:16.730Z,9.37
2018-07-25T10:33:48.340Z,9.87
2018-07-25T10:36:19.622Z,10.30
2018-07-25T10:38:51.186Z,10.33
2018-07-25T10:41:22.234Z,10.10
2018-07-25T10:43:53.174Z,10.90
2018-07-25T10:46:24.780Z,8.50
2018-07-25T10:48:56.338Z,8.60
2018-07-25T10:51:27.266Z,8.70
2018-07-25T10:53:59.099Z,7.90
2018-07-25T10:56:30.881Z,8.90
2018-07-25T10:59:02.660Z,8.70
2018-07-25T11:01:34.987Z,8.43
2018-07-25T11:04:06.775Z,7.27
2018-07-25T11:06:40.889Z,8.23
2018-07-25T11:09:12.543Z,8.47
2018-07-25T11:11:44.494Z,8.40
2018-07-25T11:14:15.313Z,7.40
2018-07-25T11:16:47.287Z,6.80
2018-07-25T11:19:19.115Z,7.50
2018-07-25T11:21:50.876Z,8.07
2018-07-25T11:24:23.016Z,7.00
2018-07-25T11:26:54.467Z,7.33
2018-07-25T11:29:26.380Z,7.83
2018-07-25T11:31:58.386Z,8.20
2018-07-25T11:34:30.151Z,7.27
2018-07-25T11:37:01.991Z,7.13
2018-07-25T11:39:33.982Z,8.03
2018-07-25T11:42:05.145Z,7.67
2018-07-25T11:44:36.863Z,7.70
2018-07-25T11:47:08.845Z,8.00
2018-07-25T11:49:40.560Z,7.30
2018-07-25T11:52:12.380Z,7.53
2018-07-25T11:54:44.208Z,7.23
2018-07-25T11:57:16.315Z,7.87
2018-07-25T11:59:48.178Z,8.33
2018-07-25T12:02:19.995Z,7.60
2018-07-25T12:04:51.542Z,7.03
2018-07-25T12:07:24.069Z,7.70
2018-07-25T12:09:56.325Z,7.43
2018-07-25T12:12:27.839Z,7.87
2018-07-25T12:14:58.633Z,8.40
2018-07-25T12:17:30.490Z,8.87
2018-07-25T12:20:01.219Z,9.57
2018-07-25T12:22:33.276Z,9.07
2018-07-25T12:25:04.935Z,7.10
2018-07-25T12:27:37.015Z,8.80
2018-07-25T12:30:09.535Z,8.80
2018-07-25T12:32:41.311Z,8.50
2018-07-25T12:35:13.085Z,8.37
2018-07-25T12:37:45.155Z,8.70
2018-07-25T12:40:16.943Z,9.60
2018-07-25T12:42:48.724Z,9.67
2018-07-25T12:45:20.409Z,10.60
2018-07-25T12:47:52.515Z,10.10
2018-07-25T12:50:24.303Z,11.07
2018-07-25T12:52:56.167Z,10.20
2018-07-25T12:55:26.973Z,10.10
2018-07-25T12:57:59.098Z,11.33
2018-07-25T13:00:30.773Z,10.00
2018-07-25T13:03:02.587Z,10.00
2018-07-25T13:05:34.265Z,10.20
2018-07-25T13:08:07.343Z,10.20
2018-07-25T13:10:39.147Z,9.30
2018-07-25T13:13:11.289Z,10.07
2018-07-25T13:15:43.147Z,10.33
2018-07-25T13:18:15.278Z,10.30
2018-07-25T13:20:46.370Z,10.20
2018-07-25T13:23:17.578Z,10.07
2018-07-25T13:25:49.199Z,10.70
2018-07-25T13:28:21.148Z,11.00
2018-07-25T13:30:52.870Z,11.40
2018-07-25T13:33:25.366Z,10.80
2018-07-25T13:35:57.155Z,11.67
2018-07-25T13:38:29.623Z,11.07
2018-07-25T13:41:01.377Z,11.20
2018-07-25T13:43:33.370Z,12.13
2018-07-25T13:46:05.383Z,11.50
2018-07-25T13:48:37.683Z,10.43
2018-07-25T13:51:09.563Z,13.00
2018-07-25T13:53:42.061Z,11.83
2018-07-25T13:56:13.842Z,11.97
2018-07-25T13:58:45.841Z,12.30
2018-07-25T14:01:17.930Z,11.20
2018-07-25T14:03:49.077Z,11.87
2018-07-25T14:06:20.958Z,11.60
2018-07-25T14:08:53.876Z,12.27
2018-07-25T14:11:26.000Z,11.43
2018-07-25T14:13:58.235Z,12.70
2018-07-25T14:16:29.684Z,11.40
2018-07-25T14:19:01.845Z,11.50
2018-07-25T14:21:33.635Z,12.13
2018-07-25T14:24:05.949Z,11.33
2018-07-25T14:26:37.799Z,12.20
2018-07-25T14:29:09.976Z,13.37
2018-07-25T14:31:41.679Z,11.90
2018-07-25T14:34:13.910Z,12.60
2018-07-25T14:36:45.635Z,13.47
2018-07-25T14:39:18.244Z,12.87
2018-07-25T14:41:49.962Z,12.80
2018-07-25T14:44:21.854Z,12.57
2018-07-25T14:46:53.557Z,12.80
2018-07-25T14:49:25.643Z,13.17
2018-07-25T14:51:57.935Z,13.77
2018-07-25T14:54:30.178Z,13.30
2018-07-25T14:57:01.727Z,11.80
2018-07-25T14:59:33.470Z,13.63
2018-07-25T15:02:04.218Z,13.63
2018-07-25T15:04:35.998Z,13.93
2018-07-25T15:07:07.830Z,12.97
2018-07-25T15:09:41.542Z,12.37
2018-07-25T15:12:13.717Z,13.30
2018-07-25T15:14:45.782Z,14.40
2018-07-25T15:17:17.622Z,14.43
2018-07-25T15:19:49.167Z,14.00
2018-07-25T15:22:20.762Z,13.43
2018-07-25T15:24:52.574Z,14.43
2018-07-25T15:27:24.203Z,16.03
2018-07-25T15:29:56.110Z,12.77
2018-07-25T15:32:27.178Z,13.47
2018-07-25T15:34:59.201Z,12.90
2018-07-25T15:37:30.859Z,13.37
2018-07-25T15:40:04.351Z,13.30
2018-07-25T15:42:35.939Z,14.47
2018-07-25T15:45:07.043Z,13.20
2018-07-25T15:47:38.655Z,13.73
2018-07-25T15:50:10.730Z,15.60
2018-07-25T15:52:42.510Z,13.70
2018-07-25T15:55:14.374Z,15.40
2018-07-25T15:57:46.083Z,15.87
2018-07-25T16:00:18.051Z,13.13
2018-07-25T16:02:48.802Z,14.30
2018-07-25T16:05:20.622Z,14.13
2018-07-25T16:07:52.302Z,14.97
2018-07-25T16:10:24.692Z,15.53
2018-07-25T16:12:56.382Z,14.50
2018-07-25T16:15:28.195Z,15.73
2018-07-25T16:17:59.766Z,14.10
2018-07-25T16:20:32.161Z,15.70
2018-07-25T16:23:03.803Z,15.50
2018-07-25T16:25:35.744Z,15.20
2018-07-25T16:28:06.578Z,14.53
2018-07-25T16:30:38.539Z,15.10
2018-07-25T16:33:10.355Z,15.13
2018-07-25T16:35:42.534Z,15.40
2018-07-25T16:38:14.427Z,15.23
2018-07-25T16:40:46.299Z,16.10
2018-07-25T16:43:18.090Z,16.63
2018-07-25T16:45:49.903Z,15.90
2018-07-25T16:48:20.454Z,16.20
2018-07-25T16:50:54.322Z,16.13
2018-07-25T16:53:26.987Z,16.00
2018-07-25T16:55:58.905Z,16.70
2018-07-25T16:58:30.674Z,17.37
2018-07-25T17:01:02.498Z,17.27
2018-07-25T17:03:34.285Z,17.70
2018-07-25T17:06:06.235Z,16.83
2018-07-25T17:08:37.923Z,17.73
2018-07-25T17:11:10.210Z,16.87
2018-07-25T17:13:42.149Z,18.70
2018-07-25T17:16:14.883Z,18.27
2018-07-25T17:18:46.499Z,19.03
2018-07-25T17:21:18.519Z,19.70
2018-07-25T17:24:05.129Z,18.40
2018-07-25T17:26:41.258Z,20.70
2018-07-25T17:29:13.143Z,19.80
2018-07-25T17:31:44.973Z,20.70
2018-07-25T17:34:17.457Z,19.27
2018-07-25T17:36:49.384Z,20.07
2018-07-25T17:39:20.743Z,19.40
2018-07-25T17:41:53.983Z,19.27
2018-07-25T17:44:25.501Z,19.90
2018-07-25T17:46:58.994Z,20.37
2018-07-25T17:49:30.673Z,19.40
2018-07-25T17:52:01.748Z,20.60
2018-07-25T17:54:32.524Z,21.23
2018-07-25T17:57:06.052Z,20.77
2018-07-25T17:59:43.477Z,18.83
2018-07-25T18:02:15.898Z,21.87
2018-07-25T18:04:47.594Z,21.77
2018-07-25T18:07:19.370Z,21.73
2018-07-25T18:09:53.994Z,20.00
2018-07-25T18:12:27.105Z,21.87
2018-07-25T18:15:00.163Z,21.40
2018-07-25T18:17:31.807Z,21.83
2018-07-25T18:20:04.548Z,21.90
2018-07-25T18:22:39.611Z,21.87
2018-07-25T18:25:11.823Z,20.40
2018-07-25T18:27:44.995Z,23.20
2018-07-25T18:30:20.762Z,22.50
2018-07-25T18:32:53.096Z,20.73
2018-07-25T18:35:24.677Z,20.50
2018-07-25T18:37:56.783Z,19.90
2018-07-25T18:40:32.028Z,20.47
2018-07-25T18:43:05.344Z,22.80
2018-07-25T18:45:40.113Z,21.40
2018-07-25T18:48:14.678Z,22.83
2018-07-25T18:50:46.592Z,22.73
2018-07-25T18:53:18.119Z,22.73
2018-07-25T18:55:53.285Z,21.30
2018-07-25T18:58:27.436Z,23.20
2018-07-25T19:01:00.450Z,24.47
2018-07-25T19:03:32.879Z,25.27
2018-07-25T19:06:04.395Z,25.57
2018-07-25T19:08:36.352Z,25.63
2018-07-25T19:11:08.246Z,24.10
2018-07-25T19:13:46.327Z,24.00
2018-07-25T19:16:18.087Z,25.00
2018-07-25T19:18:49.920Z,23.27
2018-07-25T19:21:21.591Z,24.00
2018-07-25T19:23:53.190Z,24.43
2018-07-25T19:26:24.813Z,24.20
2018-07-25T19:28:56.762Z,24.73
2018-07-25T19:31:28.477Z,23.00
2018-07-25T19:34:00.234Z,22.13
2018-07-25T19:36:31.754Z,22.70
2018-07-25T19:39:03.999Z,22.63
2018-07-25T19:41:35.586Z,22.97
2018-07-25T19:44:07.690Z,24.10
2018-07-25T19:46:39.482Z,24.67
2018-07-25T19:49:11.406Z,24.83
2018-07-25T19:51:42.931Z,26.30
2018-07-25T19:54:14.604Z,24.67
2018-07-25T19:56:46.606Z,24.40
2018-07-25T19:59:18.598Z,24.13
2018-07-25T20:01:49.686Z,24.10
2018-07-25T20:04:22.054Z,23.40
2018-07-25T20:06:54.241Z,24.50
2018-07-25T20:09:26.489Z,23.80
2018-07-25T20:11:58.082Z,24.00
2018-07-25T20:14:36.311Z,25.13
2018-07-25T20:17:07.828Z,24.27
2018-07-25T20:19:40.127Z,25.97
2018-07-25T20:22:11.843Z,23.70
2018-07-25T20:24:43.639Z,24.93
2018-07-25T20:27:15.255Z,24.07
2018-07-25T20:29:47.027Z,25.47
2018-07-25T20:32:18.769Z,26.93
2018-07-25T20:34:50.362Z,25.77
2018-07-25T20:37:22.399Z,27.50
2018-07-25T20:39:53.594Z,24.97
2018-07-25T20:42:25.286Z,25.10
2018-07-25T20:44:56.874Z,25.20
2018-07-25T20:47:28.492Z,26.63
2018-07-25T20:49:59.440Z,27.13
2018-07-25T20:52:31.108Z,27.23
2018-07-25T20:55:03.175Z,27.37
2018-07-25T20:57:35.095Z,26.73
2018-07-25T21:00:07.332Z,26.90
2018-07-25T21:02:39.110Z,27.53
2018-07-25T21:05:11.054Z,25.57
2018-07-25T21:07:42.610Z,26.03
2018-07-25T21:10:14.246Z,26.10
2018-07-25T21:12:46.006Z,24.90
2018-07-25T21:15:18.611Z,25.97
2018-07-25T21:17:50.179Z,26.70
2018-07-25T21:20:21.022Z,26.20
2018-07-25T21:22:52.685Z,29.00
2018-07-25T21:25:24.554Z,27.40
2018-07-25T21:27:55.982Z,26.40
2018-07-25T21:30:27.946Z,26.93
2018-07-25T21:32:59.611Z,27.33
2018-07-25T21:35:31.632Z,27.20
2018-07-25T21:38:03.110Z,24.87
2018-07-25T21:40:35.118Z,25.90
2018-07-25T21:43:06.842Z,26.10
2018-07-25T21:45:38.790Z,25.83
2018-07-25T21:48:10.593Z,27.50
2018-07-25T21:50:42.424Z,26.33
2018-07-25T21:53:14.023Z,26.77
2018-07-25T21:55:45.935Z,25.57
2018-07-25T21:58:17.558Z,26.87
2018-07-25T22:00:58.391Z,27.03
2018-07-25T22:03:29.024Z,30.73
2018-07-25T22:06:00.833Z,26.60
2018-07-25T22:08:32.531Z,29.80
2018-07-25T22:11:03.509Z,28.83
2018-07-25T22:13:35.182Z,27.93
2018-07-25T22:16:08.475Z,27.33
2018-07-25T22:18:39.924Z,27.60
2018-07-25T22:21:11.597Z,28.20
2018-07-25T22:23:43.306Z,27.17
2018-07-25T22:26:15.079Z,27.43
2018-07-25T22:28:46.490Z,27.83
2018-07-25T22:31:18.499Z,26.97
2018-07-25T22:33:50.103Z,27.10
2018-07-25T22:36:21.994Z,28.40
2018-07-25T22:38:52.741Z,28.60
2018-07-25T22:41:25.158Z,28.20
2018-07-25T22:43:56.895Z,31.10
2018-07-25T22:46:28.601Z,30.07
2018-07-25T22:49:00.206Z,28.73
2018-07-25T22:51:32.362Z,30.30
2018-07-25T22:54:03.894Z,29.30
2018-07-25T22:56:34.748Z,28.77
2018-07-25T22:59:05.380Z,28.07
2018-07-25T23:01:37.273Z,25.40
2018-07-25T23:04:07.980Z,26.63
2018-07-25T23:06:39.854Z,26.70
2018-07-25T23:09:12.454Z,23.47
2018-07-25T23:11:44.109Z,25.80
2018-07-25T23:14:15.758Z,24.30
2018-07-25T23:16:47.359Z,25.00
2018-07-25T23:19:18.954Z,25.10
2018-07-25T23:21:50.818Z,26.40
2018-07-25T23:24:22.517Z,24.27
2018-07-25T23:26:54.110Z,25.40
2018-07-25T23:29:25.697Z,25.17
2018-07-25T23:31:57.880Z,26.07
2018-07-25T23:34:29.656Z,25.50
2018-07-25T23:37:01.286Z,25.60
2018-07-25T23:39:32.821Z,25.40
2018-07-25T23:42:04.759Z,24.23
2018-07-25T23:44:36.518Z,24.70
2018-07-25T23:47:08.197Z,24.23
2018-07-25T23:49:40.310Z,26.50
2018-07-25T23:52:12.050Z,26.00
2018-07-25T23:54:43.690Z,25.20
2018-07-25T23:57:16.099Z,28.20
2018-07-25T23:59:47.794Z,26.33
